Time;durP1;ratioP1;P1;durP2;ratioP2;P2;SDS_P1;SDS_P2;PMS_P1;PMS_P2;Temp;Humidity;BMP_temperature;BMP_pressure;BME280_temperature;BME280_humidity;BME280_pressure;Samples;Min_cycle;Max_cycle;Signal;HPM_P1;HPM_P2
2023/10/01 00:00:21;;;;;;;1.08;0.35;;;;;;;20.22;100.00;100001.00;7399446;19;20018;-54
2023/10/01 00:02:49;;;;;;;5.47;0.82;;;;;;;19.14;100.00;100003.47;7402707;19;20010;-54
2023/10/01 00:05:15;;;;;;;5.68;0.75;;;;;;;18.43;100.00;100003.66;7400087;19;20605;-54
2023/10/01 00:07:42;;;;;;;2.30;0.70;;;;;;;18.92;100.00;100004.50;7399821;19;20066;-55
2023/10/01 00:10:12;;;;;;;2.60;0.73;;;;;;;18.55;100.00;99991.03;7400129;19;20554;-55
2023/10/01 00:12:39;;;;;;;1.95;0.28;;;;;;;19.63;100.00;99987.97;7400751;19;20039;-55
2023/10/01 00:15:09;;;;;;;0.17;0.10;;;;;;;18.86;100.00;100000.97;7399255;19;20017;-55
2023/10/01 00:17:38;;;;;;;0.75;0.55;;;;;;;18.25;100.00;100009.19;7398704;19;20463;-55
2023/10/01 00:20:20;;;;;;;0.10;0.00;;;;;;;17.86;100.00;99996.16;7398814;19;20018;-55
2023/10/01 00:22:49;;;;;;;2.40;0.38;;;;;;;17.77;100.00;99999.28;7402230;19;20074;-55
2023/10/01 00:25:18;;;;;;;3.25;1.20;;;;;;;18.79;100.00;99990.25;7397824;19;20006;-55
2023/10/01 00:27:45;;;;;;;0.73;0.50;;;;;;;17.82;100.00;100000.56;7399053;19;20074;-55
2023/10/01 00:30:12;;;;;;;2.95;0.32;;;;;;;19.18;100.00;99995.47;7401338;19;20047;-55
2023/10/01 00:32:39;;;;;;;3.70;1.10;;;;;;;18.93;100.00;99994.72;7401915;19;20011;-55
2023/10/01 00:35:06;;;;;;;1.35;0.50;;;;;;;19.79;100.00;99995.47;7398579;19;20018;-55
2023/10/01 00:37:34;;;;;;;0.85;0.28;;;;;;;18.64;100.00;99987.84;7398217;19;20011;-55
2023/10/01 00:40:00;;;;;;;1.10;0.35;;;;;;;17.96;100.00;99993.78;7397217;19;20018;-55
2023/10/01 00:42:28;;;;;;;0.98;0.47;;;;;;;17.64;100.00;100001.94;7401281;19;20344;-55
2023/10/01 00:44:57;;;;;;;1.75;0.65;;;;;;;21.68;100.00;99990.69;7398917;19;20018;-55
2023/10/01 00:47:26;;;;;;;1.75;0.85;;;;;;;19.29;100.00;99984.81;7396405;19;20024;-55
2023/10/01 00:49:54;;;;;;;0.20;0.20;;;;;;;19.58;100.00;99995.22;7401023;19;20010;-55
2023/10/01 00:52:20;;;;;;;0.20;0.20;;;;;;;19.93;100.00;99987.78;7398757;19;20724;-55
2023/10/01 00:54:47;;;;;;;1.20;0.40;;;;;;;20.88;100.00;99985.66;7395030;19;20015;-55
2023/10/01 00:57:17;;;;;;;9.13;0.98;;;;;;;20.47;100.00;99993.88;7397561;19;20014;-55
2023/10/01 00:59:44;;;;;;;0.65;0.30;;;;;;;20.30;100.00;99993.38;7399219;19;20006;-55
2023/10/01 01:02:15;;;;;;;0.73;0.63;;;;;;;20.15;100.00;99995.91;7397670;19;20486;-55
2023/10/01 01:05:05;;;;;;;2.67;0.75;;;;;;;19.75;100.00;99994.25;7397651;19;20451;-55
2023/10/01 01:07:33;;;;;;;6.18;0.40;;;;;;;19.75;100.00;99985.75;7398001;19;20492;-55
2023/10/01 01:10:01;;;;;;;1.75;0.20;;;;;;;19.86;100.00;99979.94;7396144;19;20070;-55
2023/10/01 01:12:27;;;;;;;0.50;0.17;;;;;;;18.48;100.00;99993.63;7400645;19;20018;-55
2023/10/01 01:14:54;;;;;;;3.22;0.57;;;;;;;20.23;100.00;99979.88;7396611;19;20038;-55
2023/10/01 01:17:24;;;;;;;1.38;0.30;;;;;;;19.95;100.00;99979.53;7396901;19;20011;-55
2023/10/01 01:19:52;;;;;;;0.25;0.22;;;;;;;32.86;99.85;99978.41;7397960;19;20013;-55
2023/10/01 01:22:28;;;;;;;1.90;0.20;;;;;;;37.95;65.77;99974.53;7400265;19;20014;-55
2023/10/01 01:24:57;;;;;;;1.65;0.10;;;;;;;25.64;100.00;99987.53;7395960;19;20074;-55
2023/10/01 01:27:23;;;;;;;0.35;0.20;;;;;;;37.97;65.24;99970.97;7395471;19;20022;-55
2023/10/01 01:29:50;;;;;;;1.08;0.50;;;;;;;39.29;57.43;99975.16;7397346;19;20014;-55
2023/10/01 01:32:17;;;;;;;0.25;0.25;;;;;;;40.09;52.47;99972.00;7399898;19;20022;-55
2023/10/01 01:34:44;;;;;;;3.17;0.40;;;;;;;40.41;49.78;99971.50;7397442;19;20015;-55
2023/10/01 01:37:19;;;;;;;1.17;0.30;;;;;;;29.83;78.54;99983.28;7401695;19;20046;-55
2023/10/01 01:39:48;;;;;;;0.38;0.20;;;;;;;22.20;100.00;99980.50;7395564;19;20015;-55
2023/10/01 01:42:21;;;;;;;0.32;0.10;;;;;;;20.40;100.00;99975.47;7397978;19;20017;-55
2023/10/01 01:44:48;;;;;;;3.53;0.40;;;;;;;22.00;100.00;99967.06;7395408;19;20018;-55
2023/10/01 01:47:15;;;;;;;0.88;0.25;;;;;;;19.79;100.00;99967.19;7395230;19;20010;-55
2023/10/01 01:49:43;;;;;;;0.30;0.17;;;;;;;20.13;100.00;99973.84;7398659;19;20403;-55
2023/10/01 01:52:10;;;;;;;0.20;0.20;;;;;;;36.39;78.48;99957.56;7397521;19;20045;-55
2023/10/01 01:54:42;;;;;;;0.40;0.17;;;;;;;27.23;100.00;99967.06;7395200;19;20006;-55
2023/10/01 01:57:17;;;;;;;0.40;0.28;;;;;;;23.03;100.00;99967.72;7397088;19;20459;-55
2023/10/01 01:59:43;;;;;;;7.13;0.65;;;;;;;24.59;100.00;99955.06;7395142;19;20021;-55
2023/10/01 02:02:10;;;;;;;0.32;0.17;;;;;;;27.73;100.00;99948.34;7398536;19;20045;-55
2023/10/01 02:04:58;;;;;;;0.43;0.43;;;;;;;22.41;100.00;99956.50;7394636;19;20039;-55
2023/10/01 02:07:33;;;;;;;0.10;0.10;;;;;;;21.35;100.00;99948.19;7393606;19;20455;-55
2023/10/01 02:09:59;;;;;;;0.05;0.00;;;;;;;19.23;100.00;99950.22;7396058;19;20018;-55
2023/10/01 02:12:29;;;;;;;0.15;0.10;;;;;;;23.25;100.00;99941.53;7397028;19;20074;-53
2023/10/01 02:14:56;;;;;;;0.35;0.20;;;;;;;20.43;100.00;99945.34;7395919;19;20006;-55
2023/10/01 02:17:25;;;;;;;1.67;0.20;;;;;;;19.60;100.00;99938.16;7394417;19;20014;-55
2023/10/01 02:19:52;;;;;;;0.13;0.08;;;;;;;19.50;100.00;99928.56;7393990;19;20010;-55
2023/10/01 02:22:18;;;;;;;0.35;0.10;;;;;;;18.78;100.00;99929.47;7397371;19;20011;-55
2023/10/01 02:27:18;;;;;;;0.00;0.00;;;;;;;18.69;100.00;99927.78;7394268;19;20023;-55
2023/10/01 02:32:34;;;;;;;0.05;0.00;;;;;;;24.63;100.00;99907.03;7399916;19;20019;-55
2023/10/01 02:35:03;;;;;;;2.80;0.30;;;;;;;20.39;100.00;99916.59;7395602;19;20086;-55
2023/10/01 02:37:29;;;;;;;0.13;0.13;;;;;;;20.57;100.00;99910.09;7395526;19;20011;-55
2023/10/01 02:40:12;;;;;;;0.25;0.10;;;;;;;32.11;100.00;99898.84;7393997;19;20078;-55
2023/10/01 02:42:38;;;;;;;0.10;0.10;;;;;;;38.01;68.17;99881.66;7397879;19;20015;-55
2023/10/01 02:45:30;;;;;;;0.00;0.00;;;;;;;41.33;51.74;99879.78;7394421;19;20025;-55
2023/10/01 02:48:13;;;;;;;0.50;0.05;;;;;;;42.16;47.31;99879.50;7394005;19;20029;-55
2023/10/01 02:50:38;;;;;;;0.00;0.00;;;;;;;36.83;50.75;99878.31;7395005;19;20011;-55
2023/10/01 02:53:04;;;;;;;0.50;0.30;;;;;;;37.49;59.57;99873.81;7397643;19;20048;-55
2023/10/01 02:55:30;;;;;;;1.10;0.22;;;;;;;34.96;83.62;99875.28;7395161;19;20051;-56
2023/10/01 02:58:02;;;;;;;0.10;0.00;;;;;;;27.38;100.00;99879.00;7394540;19;20021;-56
2023/10/01 03:00:31;;;;;;;0.65;0.30;;;;;;;25.39;100.00;99894.06;7392888;19;20039;-56
2023/10/01 03:02:59;;;;;;;0.20;0.10;;;;;;;25.29;100.00;99884.63;7397343;19;20007;-55
2023/10/01 03:05:36;;;;;;;0.43;0.10;;;;;;;22.15;100.00;99894.22;7393452;19;20025;-56
2023/10/01 03:08:11;;;;;;;0.32;0.30;;;;;;;21.05;100.00;99887.00;7394475;19;20018;-56
2023/10/01 03:10:38;;;;;;;0.57;0.30;;;;;;;22.56;100.00;99877.13;7394744;19;20034;-56
2023/10/01 03:13:30;;;;;;;0.85;0.30;;;;;;;25.82;100.00;99872.16;7396756;19;20014;-55
2023/10/01 03:18:38;;;;;;;0.85;0.15;;;;;;;36.93;70.60;99861.34;7393772;19;20054;-55
2023/10/01 03:21:07;;;;;;;0.28;0.10;;;;;;;40.66;54.01;99856.84;7394096;19;20123;-55
2023/10/01 03:23:34;;;;;;;0.35;0.15;;;;;;;31.74;94.86;99865.44;7394691;19;20007;-56
2023/10/01 03:26:03;;;;;;;0.10;0.00;;;;;;;45.92;40.58;99850.66;7392966;19;20019;-56
2023/10/01 03:31:25;;;;;;;0.80;0.55;;;;;;;31.11;73.61;99852.78;7393854;19;20022;-55
2023/10/01 03:33:55;;;;;;;0.13;0.10;;;;;;;22.26;100.00;99868.38;7394240;19;20037;-56
2023/10/01 03:36:25;;;;;;;0.63;0.52;;;;;;;21.61;100.00;99860.25;7395843;19;20456;-55
2023/10/01 03:44:59;;;;;;;0.00;0.00;;;;;;;20.02;100.00;99899.75;7392256;19;20459;-55
2023/10/01 03:47:08;;;;;;;0.57;0.10;;;;;;;19.00;100.00;99892.50;7388541;19;20024;-56
2023/10/01 03:49:37;;;;;;;0.10;0.10;;;;;;;18.73;100.00;99902.09;7392858;19;20045;-55
2023/10/01 03:52:03;;;;;;;0.10;0.10;;;;;;;18.21;100.00;99904.41;7391586;19;20014;-55
2023/10/01 03:57:18;;;;;;;0.10;0.10;;;;;;;18.63;100.00;99926.31;7388836;19;20013;-56
2023/10/01 03:59:51;;;;;;;0.28;0.10;;;;;;;19.59;100.00;99914.81;7389467;19;20019;-55
2023/10/01 04:02:28;;;;;;;0.10;0.00;;;;;;;26.07;100.00;99912.91;7393445;19;20364;-56
2023/10/01 04:04:58;;;;;;;0.10;0.10;;;;;;;21.01;100.00;99909.19;7393576;19;20018;-55
2023/10/01 04:07:42;;;;;;;0.10;0.00;;;;;;;20.10;100.00;99923.25;7390622;19;20015;-55
2023/10/01 04:10:58;;;;;;;0.10;0.10;;;;;;;20.78;100.00;99919.47;7392955;19;20463;-55
2023/10/01 04:13:00;;;;;;;0.30;0.15;;;;;;;19.61;100.00;99920.69;7396643;19;20043;-55
2023/10/01 04:15:28;;;;;;;0.63;0.10;;;;;;;19.20;100.00;99934.34;7392695;19;20014;-55
2023/10/01 04:20:48;;;;;;;0.22;0.00;;;;;;;18.83;100.00;99935.06;7392465;19;20014;-55
2023/10/01 04:23:24;;;;;;;0.10;0.00;;;;;;;18.53;100.00;99944.88;7396127;19;20017;-55
2023/10/01 04:25:51;;;;;;;0.13;0.10;;;;;;;18.52;100.00;99941.28;7390742;19;20014;-55
2023/10/01 04:28:20;;;;;;;0.22;0.10;;;;;;;18.46;100.00;99945.47;7391121;19;20018;-55
2023/10/01 04:30:51;;;;;;;3.40;0.10;;;;;;;18.72;100.00;99954.94;7399186;19;20043;-55
2023/10/01 04:33:23;;;;;;;;;;;;;;;19.00;100.00;99954.63;7404150;19;20011;-55
2023/10/01 04:35:55;;;;;;;1.40;0.38;;;;;;;18.43;100.00;99954.97;7401510;19;19921;-55
2023/10/01 04:38:22;;;;;;;0.52;0.32;;;;;;;19.07;100.00;99954.03;7399270;19;20010;-55
2023/10/01 04:40:49;;;;;;;0.10;0.10;;;;;;;19.73;100.00;99941.06;7398808;19;20035;-55
2023/10/01 04:43:16;;;;;;;0.22;0.22;;;;;;;19.60;100.00;99921.22;7403227;19;20626;-55
2023/10/01 04:45:44;;;;;;;0.30;0.22;;;;;;;19.27;100.00;99927.34;7398217;19;20025;-55
2023/10/01 04:48:22;;;;;;;0.25;0.10;;;;;;;18.90;100.00;99922.41;7398945;19;20014;-55
2023/10/01 04:50:55;;;;;;;0.00;0.00;;;;;;;19.25;100.00;99933.50;7398322;19;20007;-55
2023/10/01 04:53:25;;;;;;;0.43;0.43;;;;;;;19.84;100.00;99928.84;7403065;19;20039;-55
2023/10/01 04:56:05;;;;;;;3.60;0.30;;;;;;;20.55;100.00;99920.44;7399263;19;20034;-55
2023/10/01 04:58:36;;;;;;;4.80;0.30;;;;;;;19.48;100.00;99911.41;7398819;19;20359;-55
2023/10/01 05:01:06;;;;;;;0.20;0.10;;;;;;;18.78;100.00;99921.00;7397766;19;20048;-55
2023/10/01 05:03:39;;;;;;;0.00;0.00;;;;;;;20.63;100.00;99919.25;7402383;19;20014;-53
2023/10/01 05:06:13;;;;;;;0.10;0.10;;;;;;;20.38;100.00;99915.06;7398761;19;20007;-52
2023/10/01 05:08:40;;;;;;;0.13;0.08;;;;;;;19.77;100.00;99906.84;7398550;19;20021;-53
2023/10/01 05:11:12;;;;;;;0.25;0.25;;;;;;;19.79;100.00;99884.47;7398332;19;20070;-53
2023/10/01 05:13:42;;;;;;;0.10;0.10;;;;;;;18.63;100.00;99903.75;7398918;19;20010;-53
2023/10/01 05:16:13;;;;;;;1.85;0.13;;;;;;;19.26;100.00;99906.78;7398327;19;20011;-53
2023/10/01 05:18:42;;;;;;;0.00;0.00;;;;;;;19.18;100.00;99908.72;7398093;19;20018;-54
2023/10/01 05:21:12;;;;;;;0.45;0.10;;;;;;;18.74;100.00;99909.25;7396111;19;20070;-54
2023/10/01 05:23:39;;;;;;;0.00;0.00;;;;;;;19.07;100.00;99914.50;7396226;19;20010;-55
2023/10/01 05:26:08;;;;;;;0.47;0.20;;;;;;;19.19;100.00;99924.34;7395172;19;20356;-55
2023/10/01 05:28:36;;;;;;;0.00;0.00;;;;;;;21.56;100.00;99920.66;7398134;19;20018;-55
2023/10/01 05:31:08;;;;;;;0.70;0.10;;;;;;;19.30;100.00;99926.25;7397542;19;20031;-56
2023/10/01 05:33:38;;;;;;;0.57;0.00;;;;;;;19.04;100.00;99926.06;7398476;19;20082;-55
2023/10/01 05:38:43;;;;;;;0.00;0.00;;;;;;;19.00;100.00;99932.03;7394055;19;20014;-54
2023/10/01 05:41:13;;;;;;;0.10;0.00;;;;;;;19.11;100.00;99926.25;7394401;19;20022;-56
2023/10/01 05:44:15;;;;;;;0.00;0.00;;;;;;;18.86;100.00;99930.41;7396198;19;20458;-56
2023/10/01 05:46:34;;;;;;;0.63;0.10;;;;;;;19.26;100.00;99920.91;7394347;19;20023;-54
2023/10/01 05:49:00;;;;;;;0.10;0.10;;;;;;;19.23;100.00;99921.97;7397483;19;20019;-55
2023/10/01 05:51:30;;;;;;;0.10;0.00;;;;;;;18.98;100.00;99926.16;7397509;19;20007;-55
2023/10/01 05:53:57;;;;;;;0.10;0.10;;;;;;;18.87;100.00;99929.88;7396973;19;20011;-55
2023/10/01 05:56:36;;;;;;;0.52;0.17;;;;;;;18.49;100.00;99921.84;7396506;19;20013;-56
2023/10/01 05:59:03;;;;;;;0.00;0.00;;;;;;;18.77;100.00;99925.13;7396763;19;20011;-52
2023/10/01 06:01:33;;;;;;;0.40;0.10;;;;;;;18.57;100.00;99928.44;7396918;19;20030;-53
2023/10/01 06:04:00;;;;;;;0.35;0.10;;;;;;;18.77;100.00;99939.25;7396813;19;20016;-55
2023/10/01 06:06:27;;;;;;;0.00;0.00;;;;;;;18.57;100.00;99953.81;7398411;19;20022;-56
2023/10/01 06:09:00;;;;;;;0.10;0.10;;;;;;;18.93;100.00;99961.63;7397118;19;20353;-53
2023/10/01 06:11:41;;;;;;;0.10;0.05;;;;;;;23.02;100.00;99951.25;7394135;19;20021;-53
2023/10/01 06:14:36;;;;;;;0.30;0.20;;;;;;;20.21;100.00;99945.72;7396120;19;20491;-53
2023/10/01 06:17:00;;;;;;;;;;;;;;;19.74;100.00;99965.22;7396059;19;20014;-54
2023/10/01 06:19:27;;;;;;;0.10;0.00;;;;;;;19.58;100.00;99975.44;7394705;19;19918;-53
2023/10/01 06:22:12;;;;;;;0.00;0.00;;;;;;;19.64;100.00;99978.22;7396382;19;20010;-52
2023/10/01 06:24:40;;;;;;;0.00;0.00;;;;;;;19.12;100.00;99978.59;7394003;19;20039;-55
2023/10/01 06:27:06;;;;;;;0.90;0.10;;;;;;;19.31;100.00;99973.75;7394807;19;20011;-52
2023/10/01 06:29:33;;;;;;;0.00;0.00;;;;;;;18.91;100.00;99980.38;7395939;19;20014;-53
2023/10/01 06:32:02;;;;;;;0.20;0.00;;;;;;;19.20;100.00;99968.22;7395944;19;20025;-53
2023/10/01 06:34:39;;;;;;;0.00;0.00;;;;;;;19.31;100.00;99976.56;7395862;19;20013;-53
2023/10/01 06:37:05;;;;;;;1.85;0.10;;;;;;;19.44;100.00;99971.03;7399823;19;20010;-53
2023/10/01 06:39:35;;;;;;;0.08;0.08;;;;;;;19.57;100.00;99962.63;7392766;19;20786;-52
2023/10/01 06:42:20;;;;;;;0.20;0.00;;;;;;;28.96;100.00;99958.03;7396367;19;20006;-52
2023/10/01 06:44:58;;;;;;;0.00;0.00;;;;;;;34.13;86.19;99954.78;7394931;19;20007;-52
2023/10/01 06:47:28;;;;;;;0.10;0.00;;;;;;;27.80;100.00;99956.06;7394204;19;20018;-52
2023/10/01 06:50:00;;;;;;;0.00;0.00;;;;;;;20.94;100.00;99969.31;7398974;19;20023;-52
2023/10/01 06:52:27;;;;;;;0.10;0.10;;;;;;;20.15;100.00;99971.25;7396557;19;20474;-52
2023/10/01 06:54:55;;;;;;;0.10;0.10;;;;;;;19.77;100.00;99974.69;7393390;19;20336;-52
2023/10/01 06:57:27;;;;;;;0.08;0.00;;;;;;;19.77;100.00;99981.09;7394949;19;20026;-52
2023/10/01 06:59:58;;;;;;;2.92;0.22;;;;;;;19.92;100.00;99974.97;7394727;19;20010;-53
2023/10/01 07:02:25;;;;;;;0.98;0.00;;;;;;;20.22;100.00;99975.53;7396635;19;20055;-52
2023/10/01 07:04:56;;;;;;;0.10;0.10;;;;;;;19.79;100.00;99983.38;7394837;19;20038;-52
2023/10/01 07:07:28;;;;;;;0.10;0.10;;;;;;;19.80;100.00;99973.59;7391563;19;20082;-52
2023/10/01 07:10:00;;;;;;;0.30;0.10;;;;;;;19.43;100.00;99982.84;7394045;19;20019;-53
2023/10/01 07:12:26;;;;;;;0.05;0.05;;;;;;;19.49;100.00;99978.66;7396674;19;20014;-53
2023/10/01 07:14:53;;;;;;;0.43;0.20;;;;;;;19.37;100.00;99982.94;7393824;19;20018;-53
2023/10/01 07:17:25;;;;;;;0.08;0.00;;;;;;;19.66;100.00;99987.66;7392471;19;20014;-52
2023/10/01 07:20:18;;;;;;;0.10;0.03;;;;;;;19.55;100.00;99987.84;7393753;19;20007;-53
2023/10/01 07:22:44;;;;;;;0.10;0.08;;;;;;;19.65;100.00;99980.50;7396773;19;20014;-53
2023/10/01 07:25:37;;;;;;;0.22;0.10;;;;;;;19.80;100.00;99991.31;7392839;19;20011;-53
2023/10/01 07:28:12;;;;;;;0.10;0.10;;;;;;;19.31;100.00;99985.03;7393946;19;20011;-53
2023/10/01 07:30:45;;;;;;;0.10;0.10;;;;;;;19.30;100.00;99977.84;7394447;19;20007;-53
2023/10/01 07:33:17;;;;;;;0.00;0.00;;;;;;;19.49;100.00;99975.81;7397490;19;20014;-54
2023/10/01 07:35:45;;;;;;;0.10;0.00;;;;;;;19.90;100.00;99971.91;7398063;19;20006;-53
2023/10/01 07:38:15;;;;;;;0.50;0.28;;;;;;;20.20;100.00;99989.44;7397463;19;20034;-52
2023/10/01 07:40:57;;;;;;;0.10;0.00;;;;;;;19.48;100.00;99985.59;7397568;19;20112;-53
2023/10/01 07:43:28;;;;;;;0.10;0.00;;;;;;;20.40;100.00;99980.34;7396939;19;20010;-52
2023/10/01 07:46:07;;;;;;;0.10;0.00;;;;;;;20.47;100.00;99993.09;7396556;19;20014;-53
2023/10/01 07:48:35;;;;;;;0.00;0.00;;;;;;;20.41;100.00;99987.56;7395300;19;20053;-53
2023/10/01 07:51:04;;;;;;;0.30;0.10;;;;;;;20.33;100.00;99992.31;7397474;19;20017;-53
2023/10/01 07:53:33;;;;;;;0.00;0.00;;;;;;;20.40;100.00;99991.66;7398181;19;20014;-53
2023/10/01 07:56:06;;;;;;;0.00;0.00;;;;;;;20.33;100.00;100004.41;7397323;19;20087;-53
2023/10/01 07:58:47;;;;;;;0.10;0.10;;;;;;;20.29;100.00;100006.75;7392688;19;20006;-52
2023/10/01 08:04:05;;;;;;;0.10;0.00;;;;;;;19.67;100.00;99999.72;7396903;19;20014;-53
2023/10/01 08:06:41;;;;;;;0.20;0.10;;;;;;;20.03;100.00;100014.38;7402272;19;20015;-53
2023/10/01 08:09:12;;;;;;;0.05;0.05;;;;;;;20.49;100.00;100011.06;7404164;19;20010;-53
2023/10/01 08:14:33;;;;;;;0.43;0.22;;;;;;;21.05;100.00;100005.94;7400122;19;20070;-53
2023/10/01 08:17:03;;;;;;;0.35;0.10;;;;;;;20.92;100.00;100008.72;7399923;19;20010;-53
2023/10/01 08:19:44;;;;;;;1.90;0.43;;;;;;;20.79;100.00;100005.88;7399003;19;20038;-53
2023/10/01 08:22:14;;;;;;;0.75;0.10;;;;;;;20.89;100.00;99998.50;7401737;19;20101;-53
2023/10/01 08:24:45;;;;;;;2.75;0.38;;;;;;;21.21;100.00;99995.59;7400570;19;20011;-53
2023/10/01 08:27:12;;;;;;;2.92;0.75;;;;;;;20.31;100.00;99992.84;7397342;19;20031;-53
2023/10/01 08:32:23;;;;;;;1.42;0.80;;;;;;;20.39;100.00;99990.16;7402076;19;20066;-54
2023/10/01 08:35:03;;;;;;;0.40;0.17;;;;;;;20.47;100.00;99993.09;7400288;19;20010;-54
2023/10/01 08:37:31;;;;;;;0.63;0.38;;;;;;;20.97;100.00;100002.22;7397541;19;20355;-53
2023/10/01 08:39:58;;;;;;;0.82;0.30;;;;;;;20.82;100.00;99999.16;7400164;19;20018;-53
2023/10/01 08:42:31;;;;;;;0.50;0.30;;;;;;;20.50;100.00;100012.59;7401646;19;20066;-53
2023/10/01 08:45:03;;;;;;;0.73;0.55;;;;;;;20.20;100.00;100014.88;7398854;19;20397;-53
2023/10/01 08:47:31;;;;;;;2.10;0.52;;;;;;;20.47;100.00;100002.34;7396917;19;20025;-53
2023/10/01 08:53:36;;;;;;;0.65;0.20;;;;;;;20.66;100.00;100000.22;7401761;19;20028;-53
2023/10/01 08:56:04;;;;;;;2.50;0.10;;;;;;;20.87;100.00;100012.44;7396871;19;20006;-53
2023/10/01 08:58:27;;;;;;;3.30;0.32;;;;;;;20.88;100.00;100024.50;7398817;19;20433;-55
2023/10/01 09:01:11;;;;;;;0.20;0.15;;;;;;;21.07;100.00;100014.66;7398738;19;20019;-53
2023/10/01 09:03:39;;;;;;;2.17;0.75;;;;;;;20.75;100.00;100011.13;7399077;19;20391;-53
2023/10/01 09:06:24;;;;;;;0.25;0.20;;;;;;;20.99;100.00;100013.75;7400499;19;20014;-54
2023/10/01 09:08:55;;;;;;;0.20;0.20;;;;;;;21.00;100.00;100020.97;7398981;19;20010;-54
2023/10/01 09:11:43;;;;;;;0.35;0.30;;;;;;;20.95;100.00;100038.03;7398480;19;20459;-54
2023/10/01 09:14:17;;;;;;;2.30;0.30;;;;;;;21.10;100.00;100030.56;7397915;19;20006;-53
2023/10/01 09:16:49;;;;;;;0.10;0.10;;;;;;;20.99;100.00;100030.75;7397541;19;20030;-53
2023/10/01 09:19:37;;;;;;;0.10;0.00;;;;;;;21.04;100.00;100018.59;7396348;19;20018;-53
2023/10/01 09:22:09;;;;;;;0.03;0.03;;;;;;;21.09;100.00;100029.03;7399880;19;20455;-53
2023/10/01 09:24:39;;;;;;;0.10;0.10;;;;;;;21.09;100.00;100029.03;7397062;19;20006;-54
2023/10/01 09:27:17;;;;;;;0.68;0.15;;;;;;;21.11;100.00;100022.84;7395903;19;20041;-54
2023/10/01 09:29:48;;;;;;;0.22;0.00;;;;;;;21.22;100.00;100013.34;7397341;19;20018;-54
2023/10/01 09:32:14;;;;;;;1.03;0.13;;;;;;;21.22;100.00;100013.34;7400030;19;20007;-54
2023/10/01 09:34:53;;;;;;;0.10;0.00;;;;;;;21.12;100.00;100010.94;7397262;19;20014;-53
2023/10/01 09:42:56;;;;;;;;;;;;;;;21.30;100.00;100025.53;7401191;19;20014;-55
2023/10/01 09:45:29;;;;;;;0.40;0.30;;;;;;;21.66;100.00;100018.06;7396885;19;20352;-55
2023/10/01 09:48:09;;;;;;;0.00;0.00;;;;;;;21.92;100.00;100018.03;7395132;19;20018;-55
2023/10/01 09:50:41;;;;;;;0.00;0.00;;;;;;;21.81;100.00;100007.69;7397338;19;20062;-55
2023/10/01 09:53:14;;;;;;;0.85;0.20;;;;;;;21.78;100.00;100016.53;7400016;19;20010;-55
2023/10/01 09:55:47;;;;;;;0.00;0.00;;;;;;;21.81;100.00;100018.25;7396598;19;20014;-54
2023/10/01 09:58:30;;;;;;;0.73;0.47;;;;;;;21.84;100.00;100028.53;7396435;19;20418;-55
2023/10/01 10:01:08;;;;;;;0.25;0.05;;;;;;;21.48;100.00;100030.34;7397126;19;20014;-55
2023/10/01 10:03:38;;;;;;;0.00;0.00;;;;;;;21.49;100.00;100031.84;7397233;19;20010;-55
2023/10/01 10:06:09;;;;;;;0.20;0.10;;;;;;;21.57;100.00;100027.06;7398010;19;20497;-55
2023/10/01 10:08:37;;;;;;;1.15;0.13;;;;;;;21.64;100.00;100026.38;7396079;19;20047;-55
2023/10/01 10:11:24;;;;;;;0.10;0.00;;;;;;;21.56;100.00;100034.78;7396191;19;20006;-55
2023/10/01 10:13:57;;;;;;;0.10;0.00;;;;;;;21.36;100.00;100046.03;7397180;19;20038;-55
2023/10/01 10:16:32;;;;;;;0.22;0.10;;;;;;;21.28;100.00;100040.25;7396324;19;20336;-55
2023/10/01 10:19:21;;;;;;;0.10;0.10;;;;;;;21.20;100.00;100044.28;7396379;19;20052;-53
2023/10/01 10:24:30;;;;;;;0.17;0.00;;;;;;;21.36;100.00;100051.69;7396427;19;20010;-54
2023/10/01 10:27:00;;;;;;;0.00;0.00;;;;;;;21.33;100.00;100045.03;7392279;19;20002;-54
2023/10/01 10:30:00;;;;;;;0.95;0.20;;;;;;;21.62;100.00;100040.31;7395385;19;20018;-54
2023/10/01 10:32:31;;;;;;;0.00;0.00;;;;;;;21.61;100.00;100045.22;7395614;19;20014;-54
2023/10/01 10:35:03;;;;;;;0.10;0.10;;;;;;;21.71;100.00;100045.53;7395255;19;20015;-54
2023/10/01 10:40:04;;;;;;;0.10;0.00;;;;;;;21.65;100.00;100039.25;7394918;19;20377;-54
2023/10/01 10:42:34;;;;;;;0.10;0.10;;;;;;;21.86;100.00;100037.25;7397673;19;20048;-54
2023/10/01 10:45:23;;;;;;;0.30;0.15;;;;;;;21.65;100.00;100023.00;7394854;19;20010;-54
2023/10/01 10:47:58;;;;;;;0.00;0.00;;;;;;;21.62;100.00;100029.00;7393778;19;20395;-54
2023/10/01 10:50:49;;;;;;;0.20;0.10;;;;;;;21.46;100.00;100030.13;7400339;19;20018;-54
2023/10/01 10:53:39;;;;;;;0.10;0.00;;;;;;;21.69;100.00;100022.66;7398800;19;20070;-54
2023/10/01 10:56:14;;;;;;;0.10;0.10;;;;;;;21.86;100.00;100014.56;7394563;19;20363;-54
2023/10/01 10:58:43;;;;;;;1.48;0.00;;;;;;;21.85;100.00;100030.81;7394471;19;20616;-54
2023/10/01 11:01:18;;;;;;;0.00;0.00;;;;;;;21.97;100.00;100022.81;7394331;19;20029;-55
2023/10/01 11:03:58;;;;;;;0.00;0.00;;;;;;;21.96;100.00;100024.13;7395029;19;20014;-55
2023/10/01 11:07:01;;;;;;;0.20;0.20;;;;;;;21.99;100.00;100027.94;7396745;19;20015;-55
2023/10/01 11:09:24;;;;;;;0.00;0.00;;;;;;;22.18;100.00;100025.66;7393618;19;20040;-56
2023/10/01 11:11:56;;;;;;;1.13;0.20;;;;;;;22.06;100.00;100033.69;7393015;19;20501;-56
2023/10/01 11:14:25;;;;;;;0.10;0.00;;;;;;;22.27;100.00;100030.88;7394847;19;20019;-55
2023/10/01 11:16:51;;;;;;;0.00;0.00;;;;;;;22.31;100.00;100031.28;7394355;19;20011;-56
2023/10/01 11:19:21;;;;;;;0.28;0.10;;;;;;;22.61;100.00;100032.38;7394434;19;20018;-56
2023/10/01 11:21:55;;;;;;;0.22;0.10;;;;;;;22.60;100.00;100035.75;7393336;19;20015;-57
2023/10/01 11:24:32;;;;;;;0.80;0.47;;;;;;;22.87;100.00;100044.88;7394500;19;20103;-55
2023/10/01 11:27:43;;;;;;;0.38;0.30;;;;;;;22.55;100.00;100051.59;7391716;19;20015;-56
2023/10/01 11:30:34;;;;;;;0.00;0.00;;;;;;;22.28;100.00;100038.84;7395456;19;20351;-56
2023/10/01 11:33:12;;;;;;;0.57;0.20;;;;;;;22.06;100.00;100035.78;7392235;19;20018;-56
2023/10/01 11:36:07;;;;;;;0.13;0.10;;;;;;;22.24;100.00;100032.75;7394196;19;20013;-56
2023/10/01 11:38:35;;;;;;;0.80;0.10;;;;;;;22.59;100.00;100026.47;7398140;19;20037;-56
2023/10/01 11:41:06;;;;;;;0.98;0.22;;;;;;;22.67;100.00;100035.06;7399575;19;20323;-56
2023/10/01 11:43:58;;;;;;;1.38;0.20;;;;;;;23.33;100.00;100029.66;7398860;19;20027;-56
2023/10/01 11:46:34;;;;;;;0.00;0.00;;;;;;;29.10;100.00;100016.47;7399514;19;20021;-56
2023/10/01 11:49:08;;;;;;;0.45;0.08;;;;;;;23.86;100.00;100038.44;7404164;19;20014;-56
2023/10/01 11:51:50;;;;;;;0.50;0.10;;;;;;;23.20;100.00;100041.88;7398626;19;20021;-57
2023/10/01 11:54:44;;;;;;;0.20;0.10;;;;;;;23.05;100.00;100041.03;7397664;19;20027;-57
2023/10/01 11:57:25;;;;;;;0.10;0.10;;;;;;;23.03;100.00;100032.31;7401405;19;20011;-57
2023/10/01 12:00:01;;;;;;;2.72;0.17;;;;;;;21.41;100.00;100036.66;7399182;19;20027;-53
2023/10/01 12:02:43;;;;;;;0.10;0.10;;;;;;;21.84;100.00;100031.38;7399469;19;20011;-54
2023/10/01 12:05:16;;;;;;;0.28;0.15;;;;;;;22.09;100.00;100038.25;7400203;19;20023;-55
2023/10/01 12:07:44;;;;;;;0.75;0.10;;;;;;;21.93;100.00;100039.41;7398092;19;20007;-55
2023/10/01 12:10:31;;;;;;;0.10;0.10;;;;;;;21.78;100.00;100045.66;7399759;19;20096;-54
2023/10/01 12:12:59;;;;;;;0.47;0.10;;;;;;;22.09;100.00;100041.09;7399718;19;20458;-53
2023/10/01 12:15:34;;;;;;;0.35;0.05;;;;;;;22.65;100.00;100042.63;7399357;19;20031;-55
2023/10/01 12:18:17;;;;;;;0.00;0.00;;;;;;;22.43;100.00;100041.84;7401623;19;20366;-54
2023/10/01 12:20:55;;;;;;;;;;;;;;;22.34;100.00;100042.31;7400841;19;20013;-56
2023/10/01 12:23:26;;;;;;;0.03;0.00;;;;;;;22.91;100.00;100048.13;7400038;19;19915;-54
2023/10/01 12:29:10;;;;;;;0.08;0.00;;;;;;;22.57;100.00;100037.59;7400397;19;20035;-56
2023/10/01 12:31:29;;;;;;;0.43;0.17;;;;;;;22.20;100.00;100032.31;7399860;19;20035;-55
2023/10/01 12:34:00;;;;;;;0.17;0.10;;;;;;;22.27;100.00;100043.00;7396465;19;20007;-55
2023/10/01 13:21:09;;;;;;;0.10;0.00;;;;;;;38.31;55.05;100004.31;7394617;19;20049;-82
2023/10/01 13:23:42;;;;;;;0.03;0.00;;;;;;;37.04;60.48;100008.47;7398156;19;20050;-82